Time,TemperatureF,DewpointF,PressureIn,WindDirection,WindDirectionDegrees,WindSpeedMPH,WindSpeedGustMPH,Humidity,HourlyPrecipIn,Conditions,Clouds,dailyrainin,SoftwareType,DateUTC
2013-03-01 00:01:00,34.0,7.0,30.27,WSW,249,0.0,0.0,32,0.00,,,0.00,,2013-03-01 07:01:00,
2013-03-01 00:11:00,34.0,7.0,30.27,WSW,249,0.0,0.0,32,0.00,,,0.00,,2013-03-01 07:11:00,
2013-03-01 00:22:00,33.0,8.0,30.28,WSW,249,0.0,0.0,34,0.00,,,0.00,,2013-03-01 07:22:00,
2013-03-01 00:32:00,33.0,8.0,30.28,WSW,249,0.0,0.0,35,0.00,,,0.00,,2013-03-01 07:32:00,
2013-03-01 00:42:00,33.0,8.0,30.28,WSW,249,0.0,0.0,35,0.00,,,0.00,,2013-03-01 07:42:00,
2013-03-01 00:52:00,33.0,9.0,30.28,NW,319,2.0,2.0,36,0.00,,,0.00,,2013-03-01 07:52:00,
2013-03-01 01:01:00,33.0,6.0,30.29,North,11,1.0,3.0,31,0.00,,,0.00,,2013-03-01 08:01:00,
2013-03-01 01:11:00,33.0,6.0,30.29,North,11,1.0,3.0,31,0.00,,,0.00,,2013-03-01 08:11:00,
2013-03-01 01:22:00,34.0,5.0,30.28,NNE,13,0.0,1.0,29,0.00,,,0.00,,2013-03-01 08:22:00,
2013-03-01 01:32:00,34.0,6.0,30.28,NW,325,1.0,2.0,30,0.00,,,0.00,,2013-03-01 08:32:00,
2013-03-01 01:42:00,34.0,6.0,30.28,NW,325,1.0,2.0,30,0.00,,,0.00,,2013-03-01 08:42:00,
2013-03-01 01:53:00,34.0,4.0,30.28,NW,325,0.0,0.0,28,0.00,,,0.00,,2013-03-01 08:53:00,
2013-03-01 02:02:00,34.0,4.0,30.28,NNW,336,3.0,4.0,27,0.00,,,0.00,,2013-03-01 09:02:00,
2013-03-01 02:12:00,34.0,4.0,30.28,NNW,336,3.0,4.0,27,0.00,,,0.00,,2013-03-01 09:12:00,
2013-03-01 02:22:00,33.0,3.0,30.27,NNW,330,3.0,4.0,27,0.00,,,0.00,,2013-03-01 09:22:00,
2013-03-01 02:32:00,32.0,5.0,30.26,NNW,329,2.0,3.0,31,0.00,,,0.00,,2013-03-01 09:32:00,
2013-03-01 02:42:00,32.0,5.0,30.26,NNW,329,2.0,3.0,31,0.00,,,0.00,,2013-03-01 09:42:00,
2013-03-01 02:52:00,32.0,3.0,30.25,NNW,346,0.0,5.0,29,0.00,,,0.00,,2013-03-01 09:52:00,
2013-03-01 03:02:00,32.0,3.0,30.26,NNE,13,2.0,3.0,28,0.00,,,0.00,,2013-03-01 10:02:00,
2013-03-01 03:11:00,32.0,3.0,30.26,NNE,13,2.0,3.0,28,0.00,,,0.00,,2013-03-01 10:11:00,
2013-03-01 03:21:00,32.0,2.0,30.25,NNW,340,2.0,5.0,27,0.00,,,0.00,,2013-03-01 10:21:00,
2013-03-01 03:32:00,32.0,2.0,30.25,NNW,332,1.0,4.0,27,0.00,,,0.00,,2013-03-01 10:32:00,
2013-03-01 03:42:00,32.0,2.0,30.25,NNW,332,1.0,4.0,27,0.00,,,0.00,,2013-03-01 10:42:00,
2013-03-01 03:52:00,31.0,2.0,30.26,NNW,342,0.0,0.0,28,0.00,,,0.00,,2013-03-01 10:52:00,
2013-03-01 04:01:00,30.0,2.0,30.26,South,170,0.0,2.0,30,0.00,,,0.00,,2013-03-01 11:01:00,
2013-03-01 04:11:00,30.0,2.0,30.26,South,170,0.0,2.0,30,0.00,,,0.00,,2013-03-01 11:11:00,
2013-03-01 04:22:00,30.0,4.0,30.28,ENE,65,0.0,2.0,33,0.00,,,0.00,,2013-03-01 11:22:00,
2013-03-01 04:32:00,29.0,4.0,30.29,WNW,301,1.0,2.0,33,0.00,,,0.00,,2013-03-01 11:32:00,
2013-03-01 04:42:00,29.0,4.0,30.29,WNW,301,1.0,2.0,33,0.00,,,0.00,,2013-03-01 11:42:00,
2013-03-01 04:52:00,28.0,3.0,30.29,NW,309,0.0,0.0,34,0.00,,,0.00,,2013-03-01 11:52:00,
2013-03-01 05:01:00,28.0,5.0,30.29,NW,309,0.0,0.0,36,0.00,,,0.00,,2013-03-01 12:01:00,
2013-03-01 05:11:00,28.0,5.0,30.29,NW,309,0.0,0.0,36,0.00,,,0.00,,2013-03-01 12:11:00,
2013-03-01 05:21:00,28.0,5.0,30.28,North,10,0.0,2.0,37,0.00,,,0.00,,2013-03-01 12:21:00,
2013-03-01 05:32:00,28.0,6.0,30.29,NW,322,1.0,3.0,38,0.00,,,0.00,,2013-03-01 12:32:00,
2013-03-01 05:42:00,28.0,6.0,30.29,NW,322,1.0,3.0,38,0.00,,,0.00,,2013-03-01 12:42:00,
2013-03-01 05:52:00,28.0,5.0,30.29,NW,322,0.0,0.0,37,0.00,,,0.00,,2013-03-01 12:52:00,
2013-03-01 06:01:00,28.0,7.0,30.29,NW,326,0.0,2.0,41,0.00,,,0.00,,2013-03-01 13:01:00,
2013-03-01 06:11:00,27.0,8.0,30.29,NW,326,0.0,0.0,43,0.00,,,0.00,,2013-03-01 13:11:00,
2013-03-01 06:21:00,27.0,8.0,30.29,NW,326,0.0,0.0,43,0.00,,,0.00,,2013-03-01 13:21:00,
2013-03-01 06:32:00,28.0,5.0,30.30,North,354,3.0,5.0,37,0.00,,,0.00,,2013-03-01 13:32:00,
2013-03-01 06:41:00,28.0,5.0,30.30,North,354,3.0,5.0,37,0.00,,,0.00,,2013-03-01 13:41:00,
2013-03-01 06:52:00,28.0,5.0,30.30,NW,305,1.0,3.0,37,0.00,,,0.00,,2013-03-01 13:52:00,
2013-03-01 07:01:00,28.0,7.0,30.30,NW,318,0.0,0.0,40,0.00,,,0.00,,2013-03-01 14:01:00,
2013-03-01 07:11:00,28.0,7.0,30.30,NW,318,0.0,0.0,40,0.00,,,0.00,,2013-03-01 14:11:00,
2013-03-01 07:21:00,28.0,6.0,30.31,NW,318,0.0,0.0,39,0.00,,,0.00,,2013-03-01 14:21:00,
2013-03-01 07:32:00,31.0,7.0,30.32,NW,318,0.0,0.0,36,0.00,,,0.00,,2013-03-01 14:32:00,
2013-03-01 07:41:00,31.0,7.0,30.32,NW,318,0.0,0.0,36,0.00,,,0.00,,2013-03-01 14:41:00,
2013-03-01 07:52:00,34.0,7.0,30.32,East,97,0.0,2.0,32,0.00,,,0.00,,2013-03-01 14:52:00,
2013-03-01 08:01:00,37.0,8.0,30.33,East,97,0.0,0.0,29,0.00,,,0.00,,2013-03-01 15:01:00,
2013-03-01 08:11:00,40.0,5.0,30.33,North,6,2.0,6.0,23,0.00,,,0.00,,2013-03-01 15:11:00,
2013-03-01 08:21:00,40.0,5.0,30.33,North,6,2.0,6.0,23,0.00,,,0.00,,2013-03-01 15:21:00,
2013-03-01 08:31:00,41.0,5.0,30.33,NNW,345,4.0,7.0,22,0.00,,,0.00,,2013-03-01 15:31:00,
2013-03-01 08:42:00,41.0,5.0,30.33,NNW,345,4.0,7.0,22,0.00,,,0.00,,2013-03-01 15:42:00,
2013-03-01 08:52:00,44.0,7.0,30.34,NNW,345,6.0,11.0,21,0.00,,,0.00,,2013-03-01 15:52:00,
2013-03-01 09:01:00,46.0,7.0,30.34,North,6,4.0,12.0,20,0.00,,,0.00,,2013-03-01 16:01:00,
2013-03-01 09:11:00,46.0,7.0,30.34,North,6,4.0,12.0,20,0.00,,,0.00,,2013-03-01 16:11:00,
2013-03-01 09:21:00,48.0,8.0,30.34,North,6,8.0,13.0,19,0.00,,,0.00,,2013-03-01 16:21:00,
2013-03-01 09:32:00,49.0,7.0,30.35,NNW,346,8.0,15.0,18,0.00,,,0.00,,2013-03-01 16:32:00,
2013-03-01 09:41:00,49.0,7.0,30.35,NNW,346,8.0,15.0,18,0.00,,,0.00,,2013-03-01 16:41:00,
2013-03-01 09:52:00,51.0,8.0,30.35,ENE,65,5.0,11.0,17,0.00,,,0.00,,2013-03-01 16:52:00,
2013-03-01 10:01:00,52.0,7.0,30.35,ENE,59,5.0,10.0,16,0.00,,,0.00,,2013-03-01 17:01:00,
2013-03-01 10:11:00,53.0,8.0,30.35,NNE,13,8.0,11.0,16,0.00,,,0.00,,2013-03-01 17:11:00,
2013-03-01 10:21:00,53.0,8.0,30.35,NNE,13,8.0,11.0,16,0.00,,,0.00,,2013-03-01 17:21:00,
2013-03-01 10:31:00,55.0,8.0,30.35,NNW,347,7.0,12.0,15,0.00,,,0.00,,2013-03-01 17:31:00,
2013-03-01 10:41:00,56.0,7.0,30.35,NNW,329,6.0,9.0,14,0.00,,,0.00,,2013-03-01 17:41:00,
2013-03-01 10:52:00,56.0,7.0,30.35,NNW,329,6.0,9.0,14,0.00,,,0.00,,2013-03-01 17:52:00,
2013-03-01 11:01:00,57.0,8.0,30.35,ENE,65,3.0,10.0,14,0.00,,,0.00,,2013-03-01 18:01:00,
2013-03-01 11:12:00,57.0,8.0,30.35,ENE,65,3.0,10.0,14,0.00,,,0.00,,2013-03-01 18:12:00,
2013-03-01 11:22:00,59.0,6.0,30.35,NE,39,3.0,6.0,12,0.00,,,0.00,,2013-03-01 18:22:00,
2013-03-01 11:31:00,59.0,8.0,30.34,North,359,2.0,9.0,13,0.00,,,0.00,,2013-03-01 18:31:00,
2013-03-01 11:41:00,60.0,7.0,30.34,NE,42,1.0,8.0,12,0.00,,,0.00,,2013-03-01 18:41:00,
2013-03-01 11:52:00,60.0,7.0,30.34,NE,42,1.0,8.0,12,0.00,,,0.00,,2013-03-01 18:52:00,
2013-03-01 12:01:00,60.0,7.0,30.33,South,187,2.0,8.0,12,0.00,,,0.00,,2013-03-01 19:01:00,
2013-03-01 12:11:00,60.0,7.0,30.33,South,187,2.0,8.0,12,0.00,,,0.00,,2013-03-01 19:11:00,
2013-03-01 12:21:00,62.0,7.0,30.32,SE,127,5.0,7.0,11,0.00,,,0.00,,2013-03-01 19:21:00,
2013-03-01 12:31:00,62.0,7.0,30.32,East,91,4.0,8.0,11,0.00,,,0.00,,2013-03-01 19:31:00,
2013-03-01 12:42:00,62.0,7.0,30.32,East,91,4.0,8.0,11,0.00,,,0.00,,2013-03-01 19:42:00,
2013-03-01 12:52:00,63.0,6.0,30.30,South,176,2.0,7.0,10,0.00,,,0.00,,2013-03-01 19:52:00,
2013-03-01 13:01:00,64.0,6.0,30.29,South,174,4.0,7.0,10,0.00,,,0.00,,2013-03-01 20:01:00,
2013-03-01 13:11:00,64.0,6.0,30.29,South,174,4.0,7.0,10,0.00,,,0.00,,2013-03-01 20:11:00,
2013-03-01 13:21:00,64.0,6.0,30.28,SW,225,3.0,8.0,10,0.00,,,0.00,,2013-03-01 20:21:00,
2013-03-01 13:31:00,65.0,7.0,30.28,ENE,72,3.0,8.0,10,0.00,,,0.00,,2013-03-01 20:31:00,
2013-03-01 13:41:00,65.0,7.0,30.28,ENE,72,3.0,8.0,10,0.00,,,0.00,,2013-03-01 20:41:00,
2013-03-01 13:52:00,66.0,8.0,30.27,NNW,345,5.0,8.0,10,0.00,,,0.00,,2013-03-01 20:52:00,
2013-03-01 14:01:00,66.0,8.0,30.27,NE,56,5.0,16.0,10,0.00,,,0.00,,2013-03-01 21:01:00,
2013-03-01 14:11:00,67.0,6.0,30.26,East,79,4.0,9.0,9,0.00,,,0.00,,2013-03-01 21:11:00,
2013-03-01 14:21:00,67.0,6.0,30.26,East,79,4.0,9.0,9,0.00,,,0.00,,2013-03-01 21:21:00,
2013-03-01 14:31:00,67.0,6.0,30.25,NNW,340,8.0,11.0,9,0.00,,,0.00,,2013-03-01 21:31:00,
2013-03-01 14:41:00,67.0,9.0,30.25,East,87,2.0,9.0,10,0.00,,,0.00,,2013-03-01 21:41:00,
2013-03-01 14:52:00,67.0,9.0,30.25,East,87,2.0,9.0,10,0.00,,,0.00,,2013-03-01 21:52:00,
2013-03-01 15:01:00,67.0,9.0,30.25,NW,325,6.0,13.0,10,0.00,,,0.00,,2013-03-01 22:01:00,
2013-03-01 15:11:00,67.0,9.0,30.25,NE,37,6.0,19.0,10,0.00,,,0.00,,2013-03-01 22:11:00,
2013-03-01 15:21:00,67.0,9.0,30.25,NE,37,6.0,19.0,10,0.00,,,0.00,,2013-03-01 22:21:00,
2013-03-01 15:31:00,67.0,9.0,30.25,NNW,346,9.0,12.0,10,0.00,,,0.00,,2013-03-01 22:31:00,
2013-03-01 15:41:00,67.0,9.0,30.25,NNW,346,9.0,12.0,10,0.00,,,0.00,,2013-03-01 22:41:00,
2013-03-01 15:52:00,67.0,6.0,30.24,North,354,9.0,14.0,9,0.00,,,0.00,,2013-03-01 22:52:00,
2013-03-01 16:01:00,67.0,9.0,30.24,NNE,27,5.0,14.0,10,0.00,,,0.00,,2013-03-01 23:01:00,
2013-03-01 16:11:00,67.0,9.0,30.24,NNE,27,5.0,14.0,10,0.00,,,0.00,,2013-03-01 23:11:00,
2013-03-01 16:21:00,67.0,6.0,30.24,North,3,5.0,14.0,9,0.00,,,0.00,,2013-03-01 23:21:00,
2013-03-01 16:31:00,68.0,7.0,30.24,NNE,23,5.0,10.0,9,0.00,,,0.00,,2013-03-01 23:31:00,
2013-03-01 16:41:00,68.0,7.0,30.24,NNE,23,5.0,10.0,9,0.00,,,0.00,,2013-03-01 23:41:00,
2013-03-01 16:52:00,68.0,7.0,30.24,NE,38,7.0,12.0,9,0.00,,,0.00,,2013-03-01 23:52:00,
2013-03-01 17:01:00,67.0,6.0,30.24,North,7,6.0,13.0,9,0.00,,,0.00,,2013-03-02 00:01:00,
2013-03-01 17:11:00,67.0,6.0,30.24,North,7,6.0,13.0,9,0.00,,,0.00,,2013-03-02 00:11:00,
2013-03-01 17:21:00,67.0,9.0,30.24,NNE,25,4.0,9.0,10,0.00,,,0.00,,2013-03-02 00:21:00,
2013-03-01 17:31:00,67.0,9.0,30.24,NE,34,7.0,10.0,10,0.00,,,0.00,,2013-03-02 00:31:00,
2013-03-01 17:42:00,67.0,9.0,30.24,NE,34,7.0,10.0,10,0.00,,,0.00,,2013-03-02 00:42:00,
2013-03-01 17:52:00,66.0,8.0,30.25,North,0,5.0,12.0,10,0.00,,,0.00,,2013-03-02 00:52:00,
2013-03-01 18:01:00,65.0,7.0,30.24,NNE,20,1.0,8.0,10,0.00,,,0.00,,2013-03-02 01:01:00,
2013-03-01 18:11:00,65.0,7.0,30.24,NNE,20,1.0,8.0,10,0.00,,,0.00,,2013-03-02 01:11:00,
2013-03-01 18:21:00,64.0,8.0,30.25,NE,38,0.0,4.0,11,0.00,,,0.00,,2013-03-02 01:21:00,
2013-03-01 18:31:00,63.0,11.0,30.25,NNW,338,0.0,2.0,13,0.00,,,0.00,,2013-03-02 01:31:00,
2013-03-01 18:41:00,63.0,11.0,30.25,NNW,338,0.0,2.0,13,0.00,,,0.00,,2013-03-02 01:41:00,
2013-03-01 18:52:00,61.0,11.0,30.25,NNW,338,0.0,0.0,14,0.00,,,0.00,,2013-03-02 01:52:00,
2013-03-01 19:01:00,59.0,13.0,30.26,NNW,338,0.0,0.0,16,0.00,,,0.00,,2013-03-02 02:01:00,
2013-03-01 19:11:00,59.0,13.0,30.26,NNW,338,0.0,0.0,16,0.00,,,0.00,,2013-03-02 02:11:00,
2013-03-01 19:21:00,58.0,13.0,30.26,WNW,294,0.0,1.0,17,0.00,,,0.00,,2013-03-02 02:21:00,
2013-03-01 19:32:00,57.0,13.0,30.26,WNW,294,0.0,0.0,17,0.00,,,0.00,,2013-03-02 02:32:00,
2013-03-01 19:41:00,57.0,13.0,30.26,WNW,294,0.0,0.0,17,0.00,,,0.00,,2013-03-02 02:41:00,
2013-03-01 19:52:00,56.0,14.0,30.26,WNW,294,0.0,0.0,19,0.00,,,0.00,,2013-03-02 02:52:00,
2013-03-01 20:01:00,54.0,13.0,30.27,South,172,0.0,5.0,19,0.00,,,0.00,,2013-03-02 03:01:00,
2013-03-01 20:11:00,54.0,13.0,30.27,South,172,0.0,5.0,19,0.00,,,0.00,,2013-03-02 03:11:00,
2013-03-01 20:21:00,54.0,10.0,30.27,South,174,2.0,4.0,17,0.00,,,0.00,,2013-03-02 03:21:00,
2013-03-01 20:32:00,55.0,11.0,30.27,SSE,162,0.0,2.0,17,0.00,,,0.00,,2013-03-02 03:32:00,
2013-03-01 20:41:00,55.0,11.0,30.27,SSE,162,0.0,2.0,17,0.00,,,0.00,,2013-03-02 03:41:00,
2013-03-01 20:52:00,53.0,12.0,30.28,West,278,2.0,4.0,19,0.00,,,0.00,,2013-03-02 03:52:00,
2013-03-01 21:01:00,52.0,12.0,30.29,West,266,0.0,0.0,20,0.00,,,0.00,,2013-03-02 04:01:00,
2013-03-01 21:11:00,52.0,12.0,30.29,West,266,0.0,0.0,20,0.00,,,0.00,,2013-03-02 04:11:00,
2013-03-01 21:21:00,52.0,12.0,30.29,West,266,0.0,0.0,20,0.00,,,0.00,,2013-03-02 04:21:00,
2013-03-01 21:32:00,51.0,12.0,30.30,West,266,0.0,0.0,21,0.00,,,0.00,,2013-03-02 04:32:00,
2013-03-01 21:42:00,51.0,12.0,30.30,West,266,0.0,0.0,21,0.00,,,0.00,,2013-03-02 04:42:00,
2013-03-01 21:52:00,49.0,12.0,30.30,West,266,0.0,0.0,22,0.00,,,0.00,,2013-03-02 04:52:00,
2013-03-01 22:01:00,48.0,12.0,30.31,West,266,0.0,0.0,23,0.00,,,0.00,,2013-03-02 05:01:00,
2013-03-01 22:12:00,48.0,12.0,30.31,West,266,0.0,0.0,23,0.00,,,0.00,,2013-03-02 05:12:00,
2013-03-01 22:22:00,47.0,14.0,30.31,West,266,0.0,0.0,26,0.00,,,0.00,,2013-03-02 05:22:00,
2013-03-01 22:32:00,47.0,14.0,30.31,West,266,0.0,0.0,26,0.00,,,0.00,,2013-03-02 05:32:00,
2013-03-01 22:41:00,47.0,14.0,30.31,West,266,0.0,0.0,26,0.00,,,0.00,,2013-03-02 05:41:00,
2013-03-01 22:52:00,46.0,13.0,30.32,West,266,0.0,0.0,26,0.00,,,0.00,,2013-03-02 05:52:00,
2013-03-01 23:01:00,46.0,12.0,30.31,West,266,0.0,0.0,25,0.00,,,0.00,,2013-03-02 06:01:00,
2013-03-01 23:11:00,46.0,12.0,30.31,West,266,0.0,0.0,25,0.00,,,0.00,,2013-03-02 06:11:00,
2013-03-01 23:21:00,45.0,14.0,30.32,West,266,0.0,0.0,28,0.00,,,0.00,,2013-03-02 06:21:00,
2013-03-01 23:31:00,44.0,15.0,30.32,West,266,0.0,0.0,31,0.00,,,0.00,,2013-03-02 06:31:00,
2013-03-01 23:41:00,44.0,15.0,30.32,West,266,0.0,0.0,31,0.00,,,0.00,,2013-03-02 06:41:00,
2013-03-01 23:52:00,43.0,14.0,30.32,West,266,0.0,0.0,31,0.00,,,0.00,,2013-03-02 06:52:00,